Time;durP1;ratioP1;P1;durP2;ratioP2;P2;SDS_P1;SDS_P2;PMS_P1;PMS_P2;Temp;Humidity;BMP_temperature;BMP_pressure;BME280_temperature;BME280_humidity;BME280_pressure;Samples;Min_cycle;Max_cycle;Signal;HPM_P1;HPM_P2
2023/12/13 00:00:37;;;;;;;19.35;4.65;;;;;;;6.72;100.00;99550.19;5083707;28;20051;-71
2023/12/13 00:03:02;;;;;;;18.38;4.97;;;;;;;6.67;100.00;99549.34;5081330;28;20028;-68
2023/12/13 00:05:27;;;;;;;18.25;5.10;;;;;;;6.67;100.00;99540.56;5082513;28;20033;-71
2023/12/13 00:07:53;;;;;;;18.08;4.70;;;;;;;6.63;100.00;99542.31;5081048;28;20036;-69
2023/12/13 00:10:18;;;;;;;18.58;4.70;;;;;;;6.63;100.00;99535.31;5081625;28;20039;-71
2023/12/13 00:12:43;;;;;;;17.75;4.72;;;;;;;6.63;100.00;99540.56;5083939;28;20030;-72
2023/12/13 00:15:09;;;;;;;18.13;4.60;;;;;;;6.66;100.00;99538.81;5080307;28;20718;-70
2023/12/13 00:17:35;;;;;;;17.17;4.47;;;;;;;6.66;100.00;99537.06;5083601;28;20406;-72
2023/12/13 00:20:01;;;;;;;17.63;4.68;;;;;;;6.70;100.00;99541.44;5081308;28;20535;-72
2023/12/13 00:22:26;;;;;;;18.15;4.57;;;;;;;6.75;100.00;99531.78;5082123;28;20039;-70
2023/12/13 00:24:52;;;;;;;18.63;4.70;;;;;;;6.74;100.00;99531.78;5082888;28;20036;-70
2023/12/13 00:27:17;;;;;;;17.33;4.53;;;;;;;6.69;100.00;99533.56;5081061;28;20464;-68
2023/12/13 00:29:42;;;;;;;20.02;4.80;;;;;;;6.63;100.00;99530.06;5083865;28;20024;-69
2023/12/13 00:32:08;;;;;;;19.10;4.97;;;;;;;6.63;100.00;99534.44;5076113;28;20025;-69
2023/12/13 00:34:33;;;;;;;20.90;5.05;;;;;;;6.62;100.00;99535.31;5082920;28;20036;-70
2023/12/13 00:36:59;;;;;;;19.52;4.45;;;;;;;6.60;100.00;99526.56;5080696;28;20032;-68
2023/12/13 00:39:24;;;;;;;18.52;4.63;;;;;;;6.65;100.00;99531.81;5081840;28;20028;-68
2023/12/13 00:41:49;;;;;;;17.50;4.60;;;;;;;6.66;100.00;99534.44;5082740;28;20483;-69
2023/12/13 00:44:15;;;;;;;17.65;4.22;;;;;;;6.67;100.00;99528.31;5083940;28;20037;-72
2023/12/13 00:46:40;;;;;;;18.48;4.70;;;;;;;6.67;100.00;99535.31;5087215;28;20113;-69
2023/12/13 00:49:06;;;;;;;17.70;4.25;;;;;;;6.67;100.00;99527.44;5084140;28;20032;-69
2023/12/13 00:51:31;;;;;;;20.25;4.88;;;;;;;6.67;100.00;99527.44;5086023;28;20402;-69
2023/12/13 00:53:56;;;;;;;18.30;4.65;;;;;;;6.67;100.00;99527.44;5085205;28;20020;-68
2023/12/13 00:56:22;;;;;;;17.90;4.18;;;;;;;6.68;100.00;99521.31;5084702;28;20036;-70
2023/12/13 00:58:47;;;;;;;17.90;4.35;;;;;;;6.68;100.00;99521.31;5086552;28;20059;-68
2023/12/13 01:01:13;;;;;;;19.50;4.70;;;;;;;6.68;100.00;99521.31;5083388;28;20021;-68
2023/12/13 01:03:38;;;;;;;19.27;4.25;;;;;;;6.68;100.00;99526.56;5079369;28;20123;-70
2023/12/13 01:06:09;;;;;;;16.90;4.55;;;;;;;6.70;100.00;99535.28;5086421;28;20374;-73
2023/12/13 01:08:35;;;;;;;16.50;4.47;;;;;;;6.69;100.00;99530.94;5083883;28;20988;-70
2023/12/13 01:11:01;;;;;;;17.15;4.57;;;;;;;6.68;100.00;99516.91;5085657;28;20033;-69
2023/12/13 01:13:27;;;;;;;19.98;5.22;;;;;;;6.70;100.00;99524.78;5085068;28;20114;-73
2023/12/13 01:15:53;;;;;;;21.17;5.00;;;;;;;6.67;100.00;99519.53;5084449;28;20032;-70
2023/12/13 01:18:18;;;;;;;19.65;5.13;;;;;;;6.63;100.00;99519.56;5086003;28;20459;-68
2023/12/13 01:20:43;;;;;;;19.45;5.15;;;;;;;6.65;100.00;99518.69;5082944;28;20074;-70
2023/12/13 01:23:09;;;;;;;19.27;5.22;;;;;;;6.66;100.00;99521.31;5086401;28;20047;-68
2023/12/13 01:25:34;;;;;;;19.90;5.50;;;;;;;6.66;100.00;99529.19;5084020;28;20395;-68
2023/12/13 01:28:00;;;;;;;20.10;5.28;;;;;;;6.65;100.00;99522.19;5085087;28;20141;-67
2023/12/13 01:30:25;;;;;;;18.27;5.50;;;;;;;6.65;100.00;99518.69;5084714;28;20039;-68
2023/12/13 01:32:50;;;;;;;19.95;5.30;;;;;;;6.66;100.00;99520.44;5083953;28;20040;-67
2023/12/13 01:35:16;;;;;;;20.05;5.50;;;;;;;6.68;100.00;99524.78;5085951;28;20116;-67
2023/12/13 01:37:41;;;;;;;19.52;5.40;;;;;;;6.65;100.00;99521.31;5082799;28;20111;-68
2023/12/13 01:40:07;;;;;;;20.83;5.57;;;;;;;6.65;100.00;99516.06;5085969;28;20387;-68
2023/12/13 01:42:36;;;;;;;21.10;5.90;;;;;;;6.65;100.00;99516.91;5083260;28;20051;-66
2023/12/13 01:45:01;;;;;;;20.25;5.45;;;;;;;6.65;100.00;99521.31;5084997;28;20025;-71
2023/12/13 01:47:27;;;;;;;20.83;6.28;;;;;;;6.66;100.00;99525.69;5084426;28;20173;-72
2023/12/13 01:49:52;;;;;;;20.10;5.88;;;;;;;6.67;100.00;99528.31;5083657;28;20059;-69
2023/12/13 01:52:19;;;;;;;22.45;6.20;;;;;;;6.67;100.00;99535.31;5084974;28;20071;-68
2023/12/13 01:54:46;;;;;;;20.40;6.53;;;;;;;6.66;100.00;99534.44;5082656;28;20064;-69
2023/12/13 01:57:14;;;;;;;23.55;6.70;;;;;;;6.68;100.00;99531.81;5085913;28;20350;-68
2023/12/13 01:59:40;;;;;;;20.65;6.68;;;;;;;6.67;100.00;99530.94;5078249;28;20024;-67
2023/12/13 02:02:06;;;;;;;20.42;6.20;;;;;;;6.67;100.00;99530.06;5085451;28;20065;-67
2023/12/13 02:04:34;;;;;;;24.05;6.95;;;;;;;6.66;100.00;99531.81;5083364;28;20472;-72
2023/12/13 02:07:00;;;;;;;22.67;6.85;;;;;;;6.69;100.00;99529.19;5084526;28;20116;-68
2023/12/13 02:09:26;;;;;;;23.17;6.78;;;;;;;6.70;100.00;99535.28;5084020;28;20470;-68
2023/12/13 02:11:51;;;;;;;23.83;6.72;;;;;;;6.76;100.00;99540.56;5082987;28;20116;-69
2023/12/13 02:14:17;;;;;;;22.98;7.07;;;;;;;6.76;100.00;99530.06;5085025;28;20480;-71
2023/12/13 02:16:43;;;;;;;23.55;7.30;;;;;;;6.75;100.00;99529.16;5082170;28;20031;-67
2023/12/13 02:19:09;;;;;;;23.05;6.80;;;;;;;6.75;100.00;99529.16;5085205;28;20024;-67
2023/12/13 02:21:34;;;;;;;22.80;7.10;;;;;;;6.76;100.00;99530.06;5082435;28;20035;-67
2023/12/13 02:24:04;;;;;;;23.40;7.13;;;;;;;6.78;100.00;99528.28;5084058;28;20036;-68
2023/12/13 02:26:30;;;;;;;22.70;6.80;;;;;;;6.77;100.00;99521.28;5083308;28;20032;-67
2023/12/13 02:28:56;;;;;;;21.67;6.80;;;;;;;6.79;100.00;99522.19;5083236;28;20118;-73
2023/12/13 02:31:22;;;;;;;24.02;6.97;;;;;;;6.78;100.00;99517.78;5084612;28;20032;-66
2023/12/13 02:33:48;;;;;;;21.17;6.30;;;;;;;6.81;100.00;99517.78;5082095;28;20029;-71
2023/12/13 02:36:13;;;;;;;23.70;7.05;;;;;;;6.80;100.00;99521.28;5085370;28;20493;-68
2023/12/13 02:38:41;;;;;;;24.67;7.40;;;;;;;6.79;100.00;99519.56;5081624;28;20072;-71
2023/12/13 02:41:07;;;;;;;23.20;7.22;;;;;;;6.76;100.00;99509.91;5084541;28;20136;-69
2023/12/13 02:43:33;;;;;;;22.27;7.15;;;;;;;6.71;100.00;99509.03;5082505;28;20122;-69
2023/12/13 02:45:58;;;;;;;22.70;6.82;;;;;;;6.71;100.00;99521.31;5083278;28;20446;-69
2023/12/13 02:48:24;;;;;;;22.70;7.05;;;;;;;6.67;100.00;99504.69;5083470;28;20032;-71
2023/12/13 02:50:52;;;;;;;24.35;7.60;;;;;;;6.74;100.00;99510.78;5082386;28;20039;-70
2023/12/13 02:53:18;;;;;;;22.58;7.35;;;;;;;6.76;100.00;99509.91;5084173;28;20406;-69
2023/12/13 02:55:43;;;;;;;24.95;7.22;;;;;;;6.79;100.00;99503.78;5081251;28;20115;-67
2023/12/13 02:58:09;;;;;;;23.30;7.38;;;;;;;6.78;100.00;99512.53;5084833;28;20463;-71
2023/12/13 03:00:34;;;;;;;23.70;7.15;;;;;;;6.78;100.00;99507.28;5081855;28;20043;-74
2023/12/13 03:02:59;;;;;;;24.63;7.47;;;;;;;6.77;100.00;99505.53;5083285;28;20494;-74
2023/12/13 03:05:24;;;;;;;25.63;7.70;;;;;;;6.76;100.00;99509.06;5083284;28;20032;-74
2023/12/13 03:07:50;;;;;;;25.73;7.57;;;;;;;6.76;100.00;99509.06;5081682;28;20036;-70
2023/12/13 03:10:15;;;;;;;23.67;7.20;;;;;;;6.77;100.00;99513.41;5084399;28;20107;-74
2023/12/13 03:12:41;;;;;;;23.77;7.10;;;;;;;6.74;100.00;99510.78;5081143;28;20036;-74
2023/12/13 03:15:07;;;;;;;24.05;7.20;;;;;;;6.72;100.00;99512.56;5083922;28;20032;-74
2023/12/13 03:17:32;;;;;;;23.27;6.63;;;;;;;6.74;100.00;99501.19;5081760;28;20032;-74
2023/12/13 03:19:58;;;;;;;23.33;6.80;;;;;;;6.75;100.00;99494.16;5082951;28;20051;-74
2023/12/13 03:22:23;;;;;;;23.38;6.40;;;;;;;6.78;100.00;99502.03;5083143;28;20402;-74
2023/12/13 03:24:50;;;;;;;25.27;6.60;;;;;;;6.78;100.00;99502.03;5081906;28;20392;-74
2023/12/13 03:27:15;;;;;;;23.73;6.50;;;;;;;6.79;100.00;99495.91;5084407;28;20429;-71
2023/12/13 03:29:41;;;;;;;23.70;6.75;;;;;;;6.81;100.00;99494.13;5080865;28;20111;-74
2023/12/13 03:32:06;;;;;;;24.73;6.80;;;;;;;6.82;100.00;99498.53;5084210;28;20043;-68
2023/12/13 03:34:31;;;;;;;24.95;6.18;;;;;;;6.81;100.00;99491.50;5081866;28;20028;-74
2023/12/13 03:36:57;;;;;;;26.02;6.45;;;;;;;6.84;100.00;99496.75;5082360;28;20059;-75
2023/12/13 03:39:22;;;;;;;28.23;6.72;;;;;;;6.86;100.00;99488.88;5083317;28;20463;-74
2023/12/13 03:41:47;;;;;;;27.55;6.47;;;;;;;6.86;100.00;99495.03;5081100;28;20468;-70
2023/12/13 03:44:13;;;;;;;26.17;6.35;;;;;;;6.86;100.00;99494.13;5084112;28;20036;-75
2023/12/13 03:46:38;;;;;;;25.35;6.10;;;;;;;6.86;100.00;99495.03;5081131;28;20032;-75
2023/12/13 03:49:03;;;;;;;25.08;6.22;;;;;;;6.87;100.00;99493.25;5083176;28;20475;-72
2023/12/13 03:51:29;;;;;;;24.00;6.35;;;;;;;6.88;100.00;99485.38;5082392;28;20451;-75
2023/12/13 03:53:54;;;;;;;23.10;6.22;;;;;;;6.89;100.00;99486.28;5081849;28;20434;-75
2023/12/13 03:56:20;;;;;;;25.40;6.00;;;;;;;6.89;100.00;99479.25;5083397;28;20062;-70
2023/12/13 03:58:45;;;;;;;26.63;6.65;;;;;;;6.88;100.00;99479.25;5080597;28;20028;-72
2023/12/13 04:01:11;;;;;;;25.40;6.63;;;;;;;6.89;100.00;99483.63;5076696;28;20082;-73
2023/12/13 04:03:36;;;;;;;27.77;6.40;;;;;;;6.89;100.00;99478.38;5083214;28;20431;-73
2023/12/13 04:06:03;;;;;;;25.98;6.20;;;;;;;6.88;100.00;99480.13;5081789;28;20182;-74
2023/12/13 04:08:28;;;;;;;25.88;6.20;;;;;;;6.90;100.00;99478.38;5082233;28;20021;-75
2023/12/13 04:10:53;;;;;;;26.88;6.18;;;;;;;6.92;100.00;99476.59;5081540;28;20031;-74
2023/12/13 04:13:19;;;;;;;26.52;6.38;;;;;;;6.91;100.00;99472.22;5081069;28;20037;-75
2023/12/13 04:15:44;;;;;;;26.73;6.13;;;;;;;6.91;100.00;99466.97;5083824;28;20050;-74
2023/12/13 04:18:10;;;;;;;27.63;6.53;;;;;;;6.93;100.00;99475.75;5082436;28;20069;-73
2023/12/13 04:20:36;;;;;;;25.73;6.43;;;;;;;6.92;100.00;99473.97;5087164;28;20028;-73
2023/12/13 04:23:01;;;;;;;23.55;5.93;;;;;;;6.91;100.00;99477.47;5085604;28;20100;-74
2023/12/13 04:25:26;;;;;;;26.40;6.68;;;;;;;6.92;100.00;99479.25;5085587;28;20078;-74
2023/12/13 04:27:51;;;;;;;25.52;6.47;;;;;;;6.92;100.00;99476.59;5086818;28;20031;-74
2023/12/13 04:30:17;;;;;;;27.63;6.90;;;;;;;6.94;100.00;99466.97;5084121;28;20035;-73
2023/12/13 04:32:42;;;;;;;26.10;6.85;;;;;;;6.94;100.00;99474.84;5087470;28;20028;-74
2023/12/13 04:35:11;;;;;;;28.13;6.93;;;;;;;6.96;100.00;99470.47;5084469;28;20078;-74
2023/12/13 04:37:37;;;;;;;29.92;6.97;;;;;;;6.95;100.00;99476.59;5087060;28;20415;-74
2023/12/13 04:40:03;;;;;;;31.15;7.13;;;;;;;6.97;100.00;99474.84;5084842;28;20024;-74
2023/12/13 04:42:29;;;;;;;26.25;6.80;;;;;;;7.00;100.00;99478.34;5085709;28;20139;-74
2023/12/13 04:44:54;;;;;;;27.48;6.97;;;;;;;7.01;100.00;99478.34;5086047;28;20107;-70
2023/12/13 04:47:20;;;;;;;29.35;7.28;;;;;;;7.01;100.00;99472.22;5084259;28;20029;-74
2023/12/13 04:49:45;;;;;;;27.63;7.20;;;;;;;7.01;100.00;99467.81;5087344;28;20084;-74
2023/12/13 04:52:11;;;;;;;28.75;7.43;;;;;;;7.04;100.00;99472.22;5079569;28;20059;-72
2023/12/13 04:54:37;;;;;;;27.90;6.88;;;;;;;7.02;100.00;99471.31;5086833;28;20467;-70
2023/12/13 04:57:03;;;;;;;28.95;7.38;;;;;;;7.04;100.00;99472.22;5084783;28;20024;-75
2023/12/13 04:59:28;;;;;;;29.13;7.43;;;;;;;7.03;100.00;99471.31;5085418;28;20028;-74
2023/12/13 05:01:54;;;;;;;29.77;7.88;;;;;;;7.05;100.00;99472.19;5085955;28;20074;-74
2023/12/13 05:04:19;;;;;;;27.95;7.40;;;;;;;7.07;100.00;99474.81;5082504;28;20115;-74
2023/12/13 05:06:44;;;;;;;28.35;7.72;;;;;;;7.05;100.00;99472.19;5085421;28;20046;-74
2023/12/13 05:09:10;;;;;;;28.35;7.88;;;;;;;7.06;100.00;99467.81;5083598;28;20537;-70
2023/12/13 05:11:35;;;;;;;29.73;8.00;;;;;;;7.05;100.00;99468.69;5085868;28;20028;-74
2023/12/13 05:14:00;;;;;;;30.25;7.72;;;;;;;7.06;100.00;99470.44;5084578;28;20024;-72
2023/12/13 05:16:26;;;;;;;29.73;7.82;;;;;;;7.04;100.00;99451.19;5084764;28;20025;-75
2023/12/13 05:18:51;;;;;;;33.17;8.70;;;;;;;7.07;100.00;99464.31;5085871;28;20027;-74
2023/12/13 05:21:17;;;;;;;28.58;8.10;;;;;;;7.06;100.00;99468.69;5083335;28;20032;-73
2023/12/13 05:23:42;;;;;;;30.13;8.30;;;;;;;7.07;100.00;99452.03;5086829;28;20039;-74
2023/12/13 05:26:08;;;;;;;26.92;7.70;;;;;;;7.07;100.00;99456.44;5083569;28;20033;-74
2023/12/13 05:28:33;;;;;;;28.10;8.00;;;;;;;7.07;100.00;99459.06;5085111;28;20040;-74
2023/12/13 05:30:58;;;;;;;30.92;8.38;;;;;;;7.08;100.00;99460.81;5084570;28;20016;-74
2023/12/13 05:33:24;;;;;;;31.25;7.70;;;;;;;7.08;100.00;99461.69;5083739;28;20028;-72
2023/12/13 05:35:49;;;;;;;28.27;7.78;;;;;;;7.09;100.00;99455.56;5086080;28;20074;-74
2023/12/13 05:38:14;;;;;;;31.30;7.70;;;;;;;7.10;100.00;99461.66;5082636;28;20064;-74
2023/12/13 05:40:39;;;;;;;29.95;7.95;;;;;;;7.11;100.00;99459.03;5085952;28;20032;-70
2023/12/13 05:43:05;;;;;;;29.60;7.80;;;;;;;7.09;100.00;99462.53;5083647;28;20074;-74
2023/12/13 05:45:31;;;;;;;27.77;7.88;;;;;;;7.07;100.00;99459.06;5084499;28;20059;-73
2023/12/13 05:47:56;;;;;;;27.98;7.75;;;;;;;7.07;100.00;99461.69;5084637;28;20035;-74
2023/12/13 05:50:21;;;;;;;31.65;7.80;;;;;;;7.04;100.00;99457.31;5083572;28;20421;-74
2023/12/13 05:52:47;;;;;;;26.17;7.25;;;;;;;7.06;100.00;99465.19;5085747;28;20060;-73
2023/12/13 05:55:12;;;;;;;27.52;7.75;;;;;;;7.06;100.00;99465.19;5082404;28;20429;-74
2023/12/13 05:57:38;;;;;;;29.05;7.75;;;;;;;7.04;100.00;99461.69;5085508;28;20035;-74
2023/12/13 06:00:06;;;;;;;27.45;7.50;;;;;;;7.03;100.00;99465.19;5083469;28;20058;-74
2023/12/13 06:02:34;;;;;;;30.35;8.00;;;;;;;7.04;100.00;99469.56;5084171;28;20025;-74
2023/12/13 06:05:01;;;;;;;30.60;8.02;;;;;;;7.04;100.00;99470.44;5084027;28;20026;-73
2023/12/13 06:07:26;;;;;;;28.40;7.70;;;;;;;7.01;100.00;99466.97;5083351;28;20028;-74
2023/12/13 06:09:51;;;;;;;28.55;7.68;;;;;;;7.01;100.00;99462.56;5084844;28;20032;-69
2023/12/13 06:12:17;;;;;;;29.25;8.13;;;;;;;7.03;100.00;99458.16;5082422;28;20074;-74
2023/12/13 06:14:43;;;;;;;28.65;7.88;;;;;;;7.00;100.00;99465.22;5077878;28;20078;-74
2023/12/13 06:17:08;;;;;;;30.88;8.02;;;;;;;6.97;100.00;99466.09;5085361;28;20028;-74
2023/12/13 06:19:34;;;;;;;28.63;8.15;;;;;;;6.94;100.00;99459.06;5082883;28;20089;-74
2023/12/13 06:21:59;;;;;;;29.45;8.15;;;;;;;6.98;100.00;99473.09;5083568;28;20039;-74
2023/12/13 06:24:24;;;;;;;29.35;8.38;;;;;;;6.96;100.00;99469.56;5084606;28;20479;-74
2023/12/13 06:26:50;;;;;;;29.48;8.63;;;;;;;6.93;100.00;99467.88;5080823;28;20174;-70
2023/12/13 06:29:15;;;;;;;30.23;9.05;;;;;;;6.94;100.00;99474.84;5083963;28;20081;-74
2023/12/13 06:31:41;;;;;;;32.40;9.05;;;;;;;6.96;100.00;99478.34;5081993;28;20033;-71
2023/12/13 06:34:06;;;;;;;28.45;8.57;;;;;;;6.96;100.00;99475.72;5084242;28;20033;-74
2023/12/13 06:36:31;;;;;;;31.17;9.15;;;;;;;6.95;100.00;99476.59;5083032;28;20074;-74
2023/12/13 06:38:57;;;;;;;30.92;9.30;;;;;;;6.96;100.00;99474.84;5083000;28;20040;-75
2023/12/13 06:41:22;;;;;;;30.52;8.95;;;;;;;6.96;100.00;99486.25;5083483;28;20028;-69
2023/12/13 06:43:47;;;;;;;32.45;9.50;;;;;;;6.96;100.00;99477.47;5081515;28;20087;-68
2023/12/13 06:46:13;;;;;;;29.40;9.18;;;;;;;6.96;100.00;99480.09;5085172;28;20204;-75
2023/12/13 06:48:38;;;;;;;31.40;9.38;;;;;;;6.95;100.00;99476.59;5081885;28;20111;-75
2023/12/13 06:51:05;;;;;;;32.13;9.32;;;;;;;6.97;100.00;99485.38;5083780;28;20147;-75
2023/12/13 06:53:30;;;;;;;28.75;9.27;;;;;;;6.96;100.00;99480.09;5082972;28;20101;-75
2023/12/13 06:55:55;;;;;;;30.67;9.50;;;;;;;6.96;100.00;99480.97;5082353;28;20036;-73
2023/12/13 06:58:21;;;;;;;28.85;9.77;;;;;;;6.97;100.00;99482.75;5084629;28;20032;-72
2023/12/13 07:00:47;;;;;;;29.45;9.63;;;;;;;6.97;100.00;99476.59;5081181;28;20491;-70
2023/12/13 07:03:13;;;;;;;29.50;9.45;;;;;;;6.98;100.00;99478.34;5084503;28;20067;-75
2023/12/13 07:05:38;;;;;;;31.05;9.73;;;;;;;6.97;100.00;99479.22;5080580;28;20349;-76
2023/12/13 07:08:04;;;;;;;29.58;10.13;;;;;;;6.95;100.00;99473.97;5083406;28;20051;-75
2023/12/13 07:10:29;;;;;;;31.15;9.65;;;;;;;6.96;100.00;99486.25;5082878;28;20067;-72
2023/12/13 07:12:54;;;;;;;28.45;10.30;;;;;;;6.97;100.00;99488.00;5082181;28;20090;-75
2023/12/13 07:15:20;;;;;;;27.52;10.15;;;;;;;6.97;100.00;99487.09;5084099;28;20113;-73
2023/12/13 07:17:45;;;;;;;31.25;10.40;;;;;;;6.98;100.00;99488.88;5080942;28;20109;-75
2023/12/13 07:20:11;;;;;;;31.17;10.95;;;;;;;6.98;100.00;99494.13;5084264;28;20103;-69
2023/12/13 07:22:36;;;;;;;30.90;10.93;;;;;;;6.97;100.00;99493.25;5081973;28;20032;-74
2023/12/13 07:25:03;;;;;;;31.88;10.95;;;;;;;6.98;100.00;99494.97;5081655;28;20540;-75
2023/12/13 07:27:28;;;;;;;31.55;11.57;;;;;;;6.98;100.00;99492.34;5083091;28;20028;-75
2023/12/13 07:29:53;;;;;;;31.30;11.85;;;;;;;7.01;100.00;99495.88;5081889;28;20870;-75
2023/12/13 07:32:19;;;;;;;32.75;12.10;;;;;;;7.01;100.00;99490.63;5084297;28;20399;-72
2023/12/13 07:34:44;;;;;;;32.97;12.27;;;;;;;7.00;100.00;99494.09;5080974;28;20082;-76
2023/12/13 07:37:10;;;;;;;31.08;11.70;;;;;;;6.98;100.00;99497.59;5083799;28;20059;-74
2023/12/13 07:39:36;;;;;;;31.73;11.77;;;;;;;6.96;100.00;99496.75;5081838;28;20030;-74
2023/12/13 07:42:03;;;;;;;34.58;12.00;;;;;;;6.96;100.00;99495.84;5082803;28;20058;-75
2023/12/13 07:44:31;;;;;;;32.05;12.65;;;;;;;6.97;100.00;99497.63;5082593;28;20090;-75
2023/12/13 07:46:56;;;;;;;33.03;11.68;;;;;;;7.00;100.00;99496.75;5081942;28;20029;-75
2023/12/13 07:49:21;;;;;;;34.42;12.10;;;;;;;6.98;100.00;99497.59;5083461;28;20028;-70
2023/12/13 07:51:47;;;;;;;31.23;11.43;;;;;;;6.99;100.00;99495.88;5082249;28;20480;-75
2023/12/13 07:54:16;;;;;;;31.35;11.88;;;;;;;7.00;100.00;99499.38;5088288;28;20028;-75
2023/12/13 07:56:41;;;;;;;32.42;12.00;;;;;;;7.01;100.00;99503.75;5084948;28;20072;-75
2023/12/13 07:59:06;;;;;;;30.92;11.48;;;;;;;7.02;100.00;99508.09;5087209;28;20086;-76
2023/12/13 08:01:32;;;;;;;32.45;12.10;;;;;;;7.03;100.00;99501.97;5086499;28;20030;-75
2023/12/13 08:03:58;;;;;;;29.90;12.00;;;;;;;7.02;100.00;99500.22;5085684;28;20032;-71
2023/12/13 08:06:24;;;;;;;33.13;12.10;;;;;;;7.03;100.00;99496.72;5087095;28;20039;-75
2023/12/13 08:08:49;;;;;;;34.00;12.02;;;;;;;7.02;100.00;99495.88;5084795;28;20028;-75
2023/12/13 08:11:15;;;;;;;32.47;11.70;;;;;;;7.04;100.00;99494.09;5088214;28;20032;-76
2023/12/13 08:13:42;;;;;;;35.92;12.73;;;;;;;7.06;100.00;99502.88;5084606;28;20383;-75
2023/12/13 08:16:07;;;;;;;30.92;11.57;;;;;;;7.06;100.00;99504.59;5087341;28;20035;-75
2023/12/13 08:18:33;;;;;;;33.72;12.27;;;;;;;7.07;100.00;99501.09;5085614;28;20016;-74
2023/12/13 08:20:58;;;;;;;32.53;12.65;;;;;;;7.09;100.00;99510.75;5085531;28;20379;-70
2023/12/13 08:23:23;;;;;;;31.98;12.05;;;;;;;7.09;100.00;99507.22;5086997;28;20482;-75
2023/12/13 08:25:49;;;;;;;32.55;12.05;;;;;;;7.10;100.00;99506.34;5084357;28;20039;-75
2023/12/13 08:28:14;;;;;;;35.35;12.30;;;;;;;7.11;100.00;99508.97;5087457;28;20024;-71
2023/12/13 08:30:39;;;;;;;32.38;12.20;;;;;;;7.14;100.00;99514.22;5084672;28;20075;-72
2023/12/13 08:33:05;;;;;;;32.70;11.50;;;;;;;7.15;100.00;99520.34;5086286;28;20449;-75
2023/12/13 08:35:30;;;;;;;33.40;13.00;;;;;;;7.17;100.00;99515.97;5085888;28;20049;-69
2023/12/13 08:37:55;;;;;;;33.90;14.32;;;;;;;7.18;100.00;99522.97;5084795;28;20025;-73
2023/12/13 08:40:21;;;;;;;32.00;12.40;;;;;;;7.19;100.00;99524.69;5087076;28;20028;-74
2023/12/13 08:42:46;;;;;;;33.67;14.48;;;;;;;7.20;100.00;99526.47;5084210;28;20028;-74
2023/12/13 08:45:13;;;;;;;30.55;13.70;;;;;;;7.22;100.00;99524.69;5087227;28;20486;-75
2023/12/13 08:47:39;;;;;;;32.78;11.57;;;;;;;7.26;100.00;99526.44;5084456;28;20035;-74
2023/12/13 08:50:04;;;;;;;30.45;11.10;;;;;;;7.27;100.00;99528.19;5084674;28;20506;-72
2023/12/13 08:52:30;;;;;;;33.58;12.50;;;;;;;7.31;100.00;99529.94;5085466;28;20040;-70
2023/12/13 08:54:56;;;;;;;33.00;12.30;;;;;;;7.36;100.00;99529.06;5084764;28;20494;-70
2023/12/13 08:57:21;;;;;;;31.50;12.32;;;;;;;7.41;100.00;99530.78;5086860;28;20032;-75
2023/12/13 08:59:46;;;;;;;33.75;12.27;;;;;;;7.44;100.00;99530.78;5084030;28;20036;-74
2023/12/13 09:02:12;;;;;;;33.80;13.07;;;;;;;7.48;100.00;99536.88;5086738;28;20024;-71
2023/12/13 09:04:37;;;;;;;30.73;11.35;;;;;;;7.51;100.00;99539.50;5083621;28;20059;-75
2023/12/13 09:07:03;;;;;;;34.03;11.88;;;;;;;7.55;100.00;99537.75;5085120;28;20025;-72
2023/12/13 09:09:28;;;;;;;30.55;11.40;;;;;;;7.59;100.00;99542.13;5085636;28;20531;-72
2023/12/13 09:11:54;;;;;;;30.80;12.27;;;;;;;7.59;100.00;99542.13;5084123;28;20028;-70
2023/12/13 09:14:20;;;;;;;32.33;11.95;;;;;;;7.58;100.00;99537.72;5086789;28;20035;-73
2023/12/13 09:16:45;;;;;;;29.73;12.07;;;;;;;7.57;100.00;99551.75;5083324;28;20025;-74
2023/12/13 09:19:11;;;;;;;32.60;12.68;;;;;;;7.58;100.00;99550.88;5086116;28;20021;-75
2023/12/13 09:21:36;;;;;;;32.17;12.07;;;;;;;7.61;100.00;99548.22;5083951;28;20035;-70
2023/12/13 09:24:02;;;;;;;30.25;12.00;;;;;;;7.63;100.00;99543.81;5085130;28;20024;-75
2023/12/13 09:26:27;;;;;;;31.25;12.18;;;;;;;7.66;100.00;99549.09;5085332;28;20032;-75
2023/12/13 09:28:55;;;;;;;33.65;13.00;;;;;;;7.71;100.00;99556.97;5083462;28;20613;-75
2023/12/13 09:31:21;;;;;;;32.63;13.02;;;;;;;7.75;100.00;99553.44;5086266;28;20107;-74
2023/12/13 09:33:46;;;;;;;31.63;12.20;;;;;;;7.71;100.00;99560.47;5082764;28;20036;-75
2023/12/13 09:36:12;;;;;;;32.65;13.00;;;;;;;7.67;100.00;99557.00;5086152;28;20076;-74
2023/12/13 09:38:37;;;;;;;31.77;12.32;;;;;;;7.64;100.00;99554.34;5083905;28;20142;-75
2023/12/13 09:41:04;;;;;;;33.65;12.82;;;;;;;7.68;100.00;99561.34;5084616;28;20028;-75
2023/12/13 09:43:31;;;;;;;35.03;13.10;;;;;;;7.69;100.00;99554.34;5084474;28;20028;-71
2023/12/13 09:45:58;;;;;;;31.67;12.38;;;;;;;7.71;100.00;99573.63;5083798;28;20491;-75
2023/12/13 09:48:24;;;;;;;31.40;11.90;;;;;;;7.78;100.00;99571.84;5085412;28;20111;-74
2023/12/13 09:50:57;;;;;;;32.00;12.98;;;;;;;7.83;100.00;99575.31;5082505;28;20117;-70
2023/12/13 09:53:22;;;;;;;;;;;;;;;7.92;100.00;99572.66;5085948;28;20151;-68
2023/12/13 09:55:48;;;;;;;31.38;12.45;;;;;;;7.79;100.00;99576.19;5082504;28;20388;-76
2023/12/13 09:58:13;;;;;;;29.20;11.95;;;;;;;7.73;100.00;99574.47;5085658;28;20063;-74
2023/12/13 10:00:41;;;;;;;31.88;12.30;;;;;;;7.68;100.00;99579.75;5083229;28;20509;-71
2023/12/13 10:03:06;;;;;;;30.02;12.13;;;;;;;7.65;100.00;99582.41;5084820;28;20028;-71
2023/12/13 10:05:33;;;;;;;31.08;11.82;;;;;;;7.65;100.00;99584.16;5057502;28;20029;-74
2023/12/13 10:08:02;;;;;;;31.50;12.23;;;;;;;7.66;100.00;99593.81;5083610;28;20403;-75
2023/12/13 10:10:31;;;;;;;31.88;12.30;;;;;;;7.62;100.00;99590.31;5084374;28;20070;-75
2023/12/13 10:12:58;;;;;;;28.50;10.95;;;;;;;7.58;100.00;99595.59;5082931;28;20497;-75
2023/12/13 10:15:34;;;;;;;28.23;11.35;;;;;;;7.59;100.00;99600.84;5084254;28;20035;-71
2023/12/13 10:18:01;;;;;;;28.00;10.90;;;;;;;7.56;100.00;99603.50;5082562;28;20381;-74
2023/12/13 10:20:28;;;;;;;31.25;12.55;;;;;;;7.59;100.00;99603.47;5084479;28;20077;-68
2023/12/13 10:22:54;;;;;;;28.40;11.57;;;;;;;7.55;100.00;99596.47;5082285;28;20028;-75
2023/12/13 10:25:23;;;;;;;29.67;12.30;;;;;;;7.54;100.00;99609.63;5085598;28;20032;-75
2023/12/13 10:27:50;;;;;;;28.27;12.30;;;;;;;7.49;100.00;99600.00;5078081;28;20463;-75
2023/12/13 10:30:18;;;;;;;30.90;12.88;;;;;;;7.48;100.00;99595.63;5077688;28;20056;-75
2023/12/13 10:32:43;;;;;;;31.70;13.23;;;;;;;7.48;100.00;99600.00;5085080;28;20382;-74
2023/12/13 10:35:09;;;;;;;28.88;12.48;;;;;;;7.48;100.00;99597.38;5082417;28;20028;-75
2023/12/13 10:37:35;;;;;;;30.88;12.68;;;;;;;7.47;100.00;99604.38;5083895;28;20068;-75
2023/12/13 10:40:00;;;;;;;30.75;12.70;;;;;;;7.48;100.00;99600.00;5083746;28;20114;-68
2023/12/13 10:42:26;;;;;;;31.45;12.77;;;;;;;7.48;100.00;99594.72;5081069;28;20032;-74
2023/12/13 10:44:53;;;;;;;31.00;12.60;;;;;;;7.49;100.00;99599.13;5084507;28;20046;-73
2023/12/13 10:47:25;;;;;;;31.08;12.23;;;;;;;7.52;100.00;99601.75;5081718;28;20036;-75
2023/12/13 10:49:55;;;;;;;28.88;12.00;;;;;;;7.55;100.00;99600.88;5078160;28;20119;-70
2023/12/13 10:52:22;;;;;;;32.42;12.63;;;;;;;7.57;100.00;99600.00;5084491;28;20071;-68
2023/12/13 10:54:49;;;;;;;31.10;12.60;;;;;;;7.61;100.00;99591.19;5081470;28;20029;-75
2023/12/13 10:57:15;;;;;;;30.23;12.35;;;;;;;7.62;100.00;99595.56;5084564;28;20028;-74
2023/12/13 10:59:42;;;;;;;31.77;12.85;;;;;;;7.63;100.00;99601.69;5081806;28;20064;-70
2023/12/13 11:02:10;;;;;;;30.73;12.55;;;;;;;7.60;100.00;99605.22;5083847;28;20039;-75
2023/12/13 11:04:37;;;;;;;28.73;11.80;;;;;;;7.56;100.00;99595.59;5082281;28;20047;-75
2023/12/13 11:07:06;;;;;;;29.80;11.38;;;;;;;7.52;100.00;99600.88;5082751;28;20409;-75
2023/12/13 11:09:32;;;;;;;30.83;11.82;;;;;;;7.54;100.00;99605.22;5083055;28;20093;-74
2023/12/13 11:12:09;;;;;;;28.48;10.98;;;;;;;7.56;100.00;99618.38;5082014;28;20047;-75
2023/12/13 11:14:35;;;;;;;29.52;11.02;;;;;;;7.56;100.00;99608.75;5082726;28;20085;-73